Time;durP1;ratioP1;P1;durP2;ratioP2;P2;SDS_P1;SDS_P2;PMS_P1;PMS_P2;Temp;Humidity;BMP_temperature;BMP_pressure;BME280_temperature;BME280_humidity;BME280_pressure;Samples;Min_cycle;Max_cycle;Signal;HPM_P1;HPM_P2
2024/01/29 00:01:09;;;;;;;9.10;5.00;;;;;;;1.38;58.00;102678.38;105505;1251;61379;-57
2024/01/29 00:03:36;;;;;;;10.70;4.00;;;;;;;1.37;58.11;102681.33;105432;1251;62581;-59
2024/01/29 00:06:04;;;;;;;9.40;4.40;;;;;;;1.36;58.24;102679.27;105315;1254;60561;-57
2024/01/29 00:08:32;;;;;;;8.10;3.20;;;;;;;1.33;58.27;102682.73;105534;1256;60498;-57
2024/01/29 00:10:59;;;;;;;12.70;4.90;;;;;;;1.32;58.34;102686.37;105769;1251;64975;-56
2024/01/29 00:13:27;;;;;;;11.60;3.50;;;;;;;1.36;58.17;102686.88;105426;1256;63530;-57
2024/01/29 00:15:55;;;;;;;10.40;4.10;;;;;;;1.37;58.20;102691.37;105366;1256;64122;-57
2024/01/29 00:18:23;;;;;;;11.30;5.40;;;;;;;1.35;58.15;102696.39;105855;1254;60589;-58
2024/01/29 00:20:51;;;;;;;12.00;5.70;;;;;;;1.34;58.20;102700.71;106945;1254;60498;-56
2024/01/29 00:23:19;;;;;;;9.00;3.00;;;;;;;1.30;58.14;102698.30;105994;1254;64902;-58
2024/01/29 00:25:47;;;;;;;11.20;4.40;;;;;;;1.22;58.07;102694.71;105511;1251;61622;-58
2024/01/29 00:28:14;;;;;;;10.30;4.20;;;;;;;1.21;57.95;102697.66;105478;1254;62678;-58
2024/01/29 00:30:42;;;;;;;9.80;5.20;;;;;;;1.23;57.76;102695.40;105619;1257;60545;-59
2024/01/29 00:33:10;;;;;;;10.80;4.50;;;;;;;1.19;57.61;102689.71;105296;1256;60412;-57
2024/01/29 00:35:37;;;;;;;9.90;3.70;;;;;;;1.13;57.47;102691.11;105502;1253;64921;-56
2024/01/29 00:38:05;;;;;;;12.20;4.10;;;;;;;1.08;57.57;102691.98;105259;1254;61404;-57
2024/01/29 00:40:33;;;;;;;9.60;4.00;;;;;;;1.03;57.59;102691.30;105640;1256;62729;-60
2024/01/29 00:43:01;;;;;;;12.40;4.50;;;;;;;1.03;57.49;102691.14;105697;1252;60601;-58
2024/01/29 00:45:29;;;;;;;10.50;3.80;;;;;;;1.09;57.33;102695.63;105809;1254;60424;-56
2024/01/29 00:47:57;;;;;;;9.90;4.70;;;;;;;1.12;57.38;102700.96;106050;1257;63644;-56
2024/01/29 00:50:24;;;;;;;10.50;4.40;;;;;;;1.07;57.53;102698.40;107643;1256;60498;-58
2024/01/29 00:52:52;;;;;;;10.20;3.70;;;;;;;1.01;57.58;102695.30;105538;1254;62587;-59
2024/01/29 00:55:20;;;;;;;11.90;6.10;;;;;;;0.94;57.81;102696.53;105324;1258;60555;-61
2024/01/29 00:57:47;;;;;;;11.70;4.50;;;;;;;0.91;57.84;102694.12;105530;1251;62212;-61
2024/01/29 01:00:15;;;;;;;11.50;4.30;;;;;;;0.86;57.96;102705.88;105349;1251;64925;-61
2024/01/29 01:02:43;;;;;;;11.70;4.20;;;;;;;0.82;58.07;102709.52;106187;1251;61406;-61
2024/01/29 01:05:11;;;;;;;9.10;3.40;;;;;;;0.85;58.21;102708.30;106291;1255;62506;-62
2024/01/29 01:07:39;;;;;;;12.40;5.20;;;;;;;0.92;58.10;102706.21;107122;1254;60546;-62
2024/01/29 01:10:07;;;;;;;7.50;2.90;;;;;;;0.98;58.04;102703.79;105357;1251;60441;-61
2024/01/29 01:12:35;;;;;;;10.30;4.10;;;;;;;0.98;57.96;102706.20;106551;1253;64928;-61
2024/01/29 01:15:03;;;;;;;9.70;3.80;;;;;;;0.96;58.06;102709.83;105298;1251;61414;-62
2024/01/29 01:17:30;;;;;;;9.80;3.90;;;;;;;0.93;57.98;102714.16;105475;1257;62458;-62
2024/01/29 01:19:58;;;;;;;11.10;4.60;;;;;;;0.88;58.11;102719.69;105493;1252;60438;-61
2024/01/29 01:22:26;;;;;;;9.90;4.50;;;;;;;0.85;58.27;102718.32;105388;1254;60339;-63
2024/01/29 01:24:53;;;;;;;11.20;4.90;;;;;;;0.80;58.30;102716.25;105398;1254;64943;-62
2024/01/29 01:27:21;;;;;;;10.80;3.90;;;;;;;0.74;58.34;102714.20;105325;1251;61399;-64
2024/01/29 01:29:48;;;;;;;9.10;5.10;;;;;;;0.70;58.37;102714.20;105555;1254;63850;-63
2024/01/29 01:32:16;;;;;;;10.70;3.90;;;;;;;0.72;58.24;102712.65;105595;1256;60831;-63
2024/01/29 01:34:44;;;;;;;7.20;3.10;;;;;;;0.78;58.19;102713.51;105459;1256;60596;-59
2024/01/29 01:37:11;;;;;;;8.10;4.30;;;;;;;0.80;58.21;102713.50;105619;1251;63646;-63
2024/01/29 01:39:40;;;;;;;8.40;3.50;;;;;;;0.78;58.18;102716.61;105507;1251;61824;-64
2024/01/29 01:42:08;;;;;;;7.60;4.20;;;;;;;0.74;58.31;102721.63;105801;1256;62612;-63
2024/01/29 01:44:35;;;;;;;13.60;6.60;;;;;;;0.73;58.33;102718.52;105355;1254;60818;-63
2024/01/29 01:47:03;;;;;;;7.80;3.80;;;;;;;0.72;58.39;102723.88;105440;1254;60556;-63
2024/01/29 01:49:31;;;;;;;9.90;3.80;;;;;;;0.69;58.30;102725.09;105800;1254;63738;-63
2024/01/29 01:51:59;;;;;;;14.80;5.20;;;;;;;0.67;58.30;102724.23;105750;1251;61841;-63
2024/01/29 01:54:27;;;;;;;7.90;3.30;;;;;;;0.70;58.19;102724.05;105541;1254;64260;-63
2024/01/29 01:56:55;;;;;;;8.60;3.20;;;;;;;0.72;58.11;102725.77;106035;1251;60459;-63
2024/01/29 01:59:23;;;;;;;8.60;3.10;;;;;;;0.72;58.24;102728.20;105334;1255;60369;-61
2024/01/29 02:01:52;;;;;;;10.60;3.80;;;;;;;0.72;58.37;102732.00;105266;1257;64958;-62
2024/01/29 02:04:20;;;;;;;9.00;3.10;;;;;;;0.70;58.33;102726.98;106225;1251;61420;-62
2024/01/29 02:06:48;;;;;;;9.90;3.60;;;;;;;0.68;58.39;102728.03;105392;1254;63713;-61
2024/01/29 02:09:16;;;;;;;10.90;3.90;;;;;;;0.63;58.36;102733.73;105421;1254;60475;-61
2024/01/29 02:11:44;;;;;;;10.50;4.10;;;;;;;0.56;58.33;102738.58;105499;1251;60341;-62
2024/01/29 02:14:12;;;;;;;8.10;2.50;;;;;;;0.46;58.36;102741.34;106431;1256;64904;-61
2024/01/29 02:16:39;;;;;;;8.90;2.80;;;;;;;0.38;58.43;102742.20;105531;1256;69250;-61
2024/01/29 02:19:16;;;;;;;9.90;2.90;;;;;;;0.31;58.52;102742.02;105427;1253;63828;-62
2024/01/29 02:21:44;;;;;;;7.80;2.70;;;;;;;0.28;58.60;102745.30;105506;1257;60542;-62
2024/01/29 02:24:12;;;;;;;9.00;3.00;;;;;;;0.30;58.56;102749.45;105406;1251;60584;-61
2024/01/29 02:26:40;;;;;;;10.70;2.90;;;;;;;0.36;58.46;102748.59;105395;1253;64975;-61
2024/01/29 02:29:08;;;;;;;6.60;2.60;;;;;;;0.43;58.44;102749.80;105456;1253;61597;-61
2024/01/29 02:31:36;;;;;;;7.30;2.20;;;;;;;0.50;58.48;102755.67;105410;1257;62447;-62
2024/01/29 02:34:03;;;;;;;8.70;3.10;;;;;;;0.54;58.52;102760.34;105343;1257;60799;-60
2024/01/29 02:36:31;;;;;;;8.00;2.20;;;;;;;0.54;58.67;102761.55;105769;1254;60567;-61
2024/01/29 02:38:59;;;;;;;8.60;3.00;;;;;;;0.50;58.61;102762.23;105496;1251;65430;-61
2024/01/29 02:41:26;;;;;;;10.10;3.50;;;;;;;0.46;58.69;102761.02;105501;1253;61341;-61
2024/01/29 02:43:54;;;;;;;9.60;4.20;;;;;;;0.40;58.81;102760.85;106036;1253;63774;-61
2024/01/29 02:46:22;;;;;;;8.40;3.30;;;;;;;0.35;58.86;102767.23;106093;1254;60555;-62
2024/01/29 02:48:49;;;;;;;9.80;2.70;;;;;;;0.31;58.93;102771.73;105294;1251;60620;-59
2024/01/29 02:51:17;;;;;;;10.20;4.30;;;;;;;0.26;59.02;102769.64;105422;1251;73837;-60
2024/01/29 02:53:44;;;;;;;10.00;3.70;;;;;;;0.21;59.24;102771.52;105377;1251;68983;-60
2024/01/29 02:56:12;;;;;;;8.90;3.30;;;;;;;0.19;59.13;102769.98;105549;1254;64413;-61
2024/01/29 02:58:39;;;;;;;10.00;4.10;;;;;;;0.15;59.21;102772.73;105369;1253;60545;-61
2024/01/29 03:01:07;;;;;;;7.70;2.60;;;;;;;0.11;59.27;102771.17;105421;1251;60566;-60
2024/01/29 03:03:35;;;;;;;11.20;3.70;;;;;;;0.13;59.16;102771.35;105524;1253;63640;-60
2024/01/29 03:06:03;;;;;;;11.30;3.10;;;;;;;0.18;58.97;102780.69;105908;1257;60552;-59
2024/01/29 03:08:31;;;;;;;9.70;3.10;;;;;;;0.24;58.90;102781.72;106743;1251;64021;-61
2024/01/29 03:10:58;;;;;;;13.80;4.10;;;;;;;0.30;59.01;102785.69;105429;1251;60683;-61
2024/01/29 03:13:26;;;;;;;14.30;4.50;;;;;;;0.37;59.02;102787.78;105486;1254;60344;-60
2024/01/29 03:15:53;;;;;;;13.60;4.70;;;;;;;0.47;59.11;102785.89;106012;1251;64893;-60
2024/01/29 03:18:21;;;;;;;8.70;3.50;;;;;;;0.54;59.27;102789.17;105473;1254;61845;-59
2024/01/29 03:20:49;;;;;;;10.30;3.40;;;;;;;0.59;59.25;102788.84;105406;1254;63752;-60
2024/01/29 03:23:16;;;;;;;12.50;5.40;;;;;;;0.59;59.13;102782.45;105586;1257;60834;-60
2024/01/29 03:25:44;;;;;;;14.30;4.60;;;;;;;0.54;59.00;102775.20;105470;1251;60642;-60
2024/01/29 03:28:11;;;;;;;9.40;3.70;;;;;;;0.47;58.90;102778.82;105570;1251;63886;-61
2024/01/29 03:30:39;;;;;;;12.20;4.90;;;;;;;0.39;58.87;102780.02;105742;1253;62523;-60
2024/01/29 03:33:07;;;;;;;10.00;5.00;;;;;;;0.34;58.88;102781.21;105365;1256;71854;-60
2024/01/29 03:35:35;;;;;;;16.60;6.40;;;;;;;0.27;58.81;102782.59;105413;1252;60562;-61
2024/01/29 03:38:02;;;;;;;12.60;6.00;;;;;;;0.16;58.73;102787.59;105459;1252;60479;-59
2024/01/29 03:40:30;;;;;;;12.20;5.20;;;;;;;0.09;58.83;102791.89;105837;1257;64847;-60
2024/01/29 03:42:57;;;;;;;11.90;5.70;;;;;;;0.01;58.95;102798.77;105436;1251;70770;-59
2024/01/29 03:45:25;;;;;;;13.50;4.90;;;;;;;-0.04;59.18;102801.52;105401;1253;63649;-60
2024/01/29 03:47:53;;;;;;;11.20;4.20;;;;;;;-0.08;59.25;102803.57;105342;1251;60611;-59
2024/01/29 03:50:20;;;;;;;14.40;5.20;;;;;;;-0.12;59.40;102807.69;105423;1253;61902;-60
2024/01/29 03:52:50;;;;;;;13.30;6.40;;;;;;;-0.19;59.33;102806.11;105497;1256;71886;-60
2024/01/29 03:55:17;;;;;;;14.80;5.30;;;;;;;-0.24;59.42;102810.76;105553;1256;69171;-59
2024/01/29 03:57:45;;;;;;;13.40;5.40;;;;;;;-0.29;59.41;102817.29;106236;1251;63658;-58
2024/01/29 04:00:18;;;;;;;21.30;9.00;;;;;;;-0.34;59.42;102818.84;105362;1254;60580;-60
2024/01/29 04:02:46;;;;;;;54.80;22.10;;;;;;;-0.39;59.45;102819.84;105599;1256;60466;-59
2024/01/29 04:05:15;;;;;;;30.90;12.00;;;;;;;-0.37;59.41;102822.94;105566;1253;63654;-57
2024/01/29 04:07:46;;;;;;;24.50;8.10;;;;;;;-0.30;59.33;102825.40;105514;1251;70262;-55
2024/01/29 04:10:15;;;;;;;10.30;4.70;;;;;;;-0.23;59.30;102825.60;105474;1254;63671;-55
2024/01/29 04:12:43;;;;;;;13.30;4.90;;;;;;;-0.15;59.53;102823.56;105370;1254;60468;-57
2024/01/29 04:15:10;;;;;;;17.90;7.50;;;;;;;-0.07;59.46;102824.80;105320;1251;61105;-58
2024/01/29 04:17:38;;;;;;;11.00;4.10;;;;;;;0.01;59.48;102823.63;105482;1251;64941;-56
2024/01/29 04:20:06;;;;;;;13.50;6.00;;;;;;;0.09;59.33;102818.29;105501;1251;62067;-57
2024/01/29 04:22:34;;;;;;;12.20;4.40;;;;;;;0.14;59.31;102821.40;105235;1255;70668;-58
2024/01/29 04:25:06;;;;;;;10.80;3.70;;;;;;;0.14;59.33;102818.98;105473;1251;63172;-57
2024/01/29 04:27:34;;;;;;;12.10;4.40;;;;;;;0.14;59.51;102819.34;105820;1255;60980;-60
2024/01/29 04:30:02;;;;;;;10.70;4.10;;;;;;;0.13;59.33;102823.14;105498;1256;65321;-57
2024/01/29 04:32:30;;;;;;;14.20;5.10;;;;;;;0.06;59.14;102826.22;105865;1254;62091;-58
2024/01/29 04:34:58;;;;;;;12.60;5.60;;;;;;;0.00;58.98;102826.73;105360;1253;72647;-58
2024/01/29 04:37:25;;;;;;;15.30;5.60;;;;;;;-0.08;58.95;102825.31;105445;1254;60517;-60
2024/01/29 04:39:53;;;;;;;14.80;6.20;;;;;;;-0.16;58.86;102829.76;105454;1251;60549;-58
2024/01/29 04:42:21;;;;;;;12.50;5.10;;;;;;;-0.26;58.86;102832.83;105554;1251;71842;-58
2024/01/29 04:44:48;;;;;;;14.30;5.60;;;;;;;-0.33;59.07;102833.14;105432;1256;69331;-58
2024/01/29 04:47:16;;;;;;;11.40;4.70;;;;;;;-0.38;59.06;102831.39;107017;1251;64167;-59
2024/01/29 04:49:43;;;;;;;13.20;4.60;;;;;;;-0.45;59.11;102834.29;105473;1251;60539;-58
2024/01/29 04:52:11;;;;;;;9.70;3.30;;;;;;;-0.54;59.18;102836.48;105347;1256;60463;-58
2024/01/29 04:54:39;;;;;;;15.10;5.00;;;;;;;-0.60;59.30;102845.42;105664;1254;64891;-57
2024/01/29 04:57:07;;;;;;;14.70;5.60;;;;;;;-0.66;59.37;102849.00;105806;1254;61920;-57
2024/01/29 04:59:34;;;;;;;14.30;6.10;;;;;;;-0.72;59.44;102846.03;106438;1254;72747;-57
2024/01/29 05:02:03;;;;;;;12.60;5.90;;;;;;;-0.76;59.60;102852.20;105396;1251;60533;-57
2024/01/29 05:04:30;;;;;;;16.00;6.20;;;;;;;-0.80;59.58;102852.36;105306;1254;61568;-57
2024/01/29 05:06:58;;;;;;;9.50;4.20;;;;;;;-0.83;59.52;102849.40;107548;1252;63716;-56
2024/01/29 05:09:26;;;;;;;13.90;4.90;;;;;;;-0.86;59.45;102854.72;106015;1253;69921;-56
2024/01/29 05:11:53;;;;;;;8.40;3.60;;;;;;;-0.90;59.54;102861.23;105403;1254;70451;-57
2024/01/29 05:14:21;;;;;;;11.30;3.70;;;;;;;-0.84;59.36;102860.95;105204;1251;61610;-56
2024/01/29 05:16:49;;;;;;;9.80;3.90;;;;;;;-0.76;59.10;102860.48;105264;1254;60454;-57
2024/01/29 05:19:16;;;;;;;13.40;4.20;;;;;;;-0.67;59.16;102860.18;105300;1251;74405;-57
2024/01/29 05:21:44;;;;;;;7.80;2.50;;;;;;;-0.59;59.08;102859.39;105569;1254;70073;-58
2024/01/29 05:24:14;;;;;;;12.10;3.90;;;;;;;-0.53;59.09;102859.94;105351;1253;62430;-57
2024/01/29 05:26:41;;;;;;;9.20;3.20;;;;;;;-0.44;59.21;102859.81;105323;1251;60876;-58
2024/01/29 05:29:09;;;;;;;8.70;3.90;;;;;;;-0.35;59.14;102861.59;105438;1251;60603;-57
2024/01/29 05:31:37;;;;;;;9.60;3.70;;;;;;;-0.26;59.02;102860.77;105337;1256;64938;-58
2024/01/29 05:34:06;;;;;;;11.00;4.50;;;;;;;-0.21;59.03;102860.12;105282;1251;70141;-61
2024/01/29 05:36:33;;;;;;;13.70;5.20;;;;;;;-0.21;58.95;102860.10;105416;1256;62436;-62
2024/01/29 05:39:01;;;;;;;12.10;4.70;;;;;;;-0.21;58.69;102869.60;105382;1256;60580;-62
2024/01/29 05:41:29;;;;;;;11.60;5.10;;;;;;;-0.27;58.56;102876.30;105939;1251;60376;-62
2024/01/29 05:43:59;;;;;;;14.40;5.30;;;;;;;-0.33;58.53;102880.74;105457;1254;73763;-60
2024/01/29 05:46:27;;;;;;;14.40;5.10;;;;;;;-0.37;58.52;102884.34;105479;1254;61363;-58
2024/01/29 05:48:55;;;;;;;11.60;5.20;;;;;;;-0.45;58.45;102887.23;105335;1254;71765;-61
2024/01/29 05:51:23;;;;;;;15.60;6.10;;;;;;;-0.50;58.48;102887.20;105293;1253;60570;-57
2024/01/29 05:53:50;;;;;;;12.50;5.10;;;;;;;-0.56;58.40;102891.46;106022;1257;60466;-61
2024/01/29 05:56:18;;;;;;;11.40;5.40;;;;;;;-0.61;58.44;102888.69;105427;1254;73807;-62
2024/01/29 05:58:46;;;;;;;15.80;6.00;;;;;;;-0.67;58.53;102888.13;106049;1257;69358;-61
2024/01/29 06:01:14;;;;;;;17.60;7.20;;;;;;;-0.73;58.60;102891.35;105443;1254;72475;-58
2024/01/29 06:03:42;;;;;;;17.80;7.00;;;;;;;-0.77;58.66;102895.29;109196;1251;58648;-56
2024/01/29 06:06:09;;;;;;;14.80;6.80;;;;;;;-0.79;58.87;102901.30;107266;1254;60441;-56
2024/01/29 06:08:38;;;;;;;15.60;8.10;;;;;;;-0.82;59.04;102906.27;105270;1251;72648;-55
2024/01/29 06:11:05;;;;;;;17.60;7.10;;;;;;;-0.83;59.24;102914.36;105483;1256;70404;-58
2024/01/29 06:13:33;;;;;;;20.10;7.90;;;;;;;-0.84;59.40;102923.85;105114;1256;71141;-57
2024/01/29 06:16:01;;;;;;;17.10;7.90;;;;;;;-0.84;59.75;102921.27;105036;1253;60648;-58
2024/01/29 06:18:29;;;;;;;11.40;5.30;;;;;;;-0.81;59.86;102916.81;109147;1251;58752;-55
2024/01/29 06:20:56;;;;;;;11.40;3.50;;;;;;;-0.70;59.76;102914.30;109240;1250;72548;-58
2024/01/29 06:23:25;;;;;;;14.00;5.60;;;;;;;-0.56;59.43;102904.57;109335;1251;69022;-58
2024/01/29 06:25:53;;;;;;;14.00;4.40;;;;;;;-0.40;59.32;102907.09;109196;1251;72468;-58
2024/01/29 06:28:20;;;;;;;11.90;5.10;;;;;;;-0.28;59.24;102912.51;105949;1251;61783;-56
2024/01/29 06:30:48;;;;;;;18.10;7.00;;;;;;;-0.14;59.22;102923.80;106042;1251;266867;-58
2024/01/29 06:46:05;;;;;;;15.20;6.40;;;;;;;0.24;59.73;102943.35;103042;1286;605195;-62
2024/01/29 06:48:36;;;;;;;17.10;7.40;;;;;;;0.90;58.05;102949.38;104044;1270;131492;-61
2024/01/29 06:51:04;;;;;;;14.90;6.80;;;;;;;0.84;58.01;102941.59;105599;1265;59391;-61
2024/01/29 06:53:33;;;;;;;14.40;6.40;;;;;;;0.78;58.04;102937.78;104524;1265;70962;-63
2024/01/29 06:56:03;;;;;;;12.10;6.20;;;;;;;0.71;57.93;102935.70;105044;1261;70423;-63
2024/01/29 06:58:31;;;;;;;14.40;7.30;;;;;;;0.64;58.03;102938.79;104640;1268;62683;-63
2024/01/29 07:01:02;;;;;;;15.30;7.00;;;;;;;0.57;58.09;102934.45;104896;1264;59597;-62
2024/01/29 07:03:31;;;;;;;17.30;7.90;;;;;;;0.52;58.16;102933.91;105987;1261;59791;-65
2024/01/29 07:05:59;;;;;;;11.70;6.10;;;;;;;0.50;58.27;102942.54;108643;1264;63889;-60
2024/01/29 07:08:27;;;;;;;9.80;4.40;;;;;;;0.54;58.27;102940.65;108567;1260;70735;-61
2024/01/29 07:10:54;;;;;;;12.60;4.10;;;;;;;0.65;58.14;102944.48;108585;1263;73132;-63
2024/01/29 07:13:21;;;;;;;17.00;8.20;;;;;;;0.77;58.00;102952.11;108491;1266;61120;-59
2024/01/29 07:15:49;;;;;;;16.00;6.80;;;;;;;0.89;57.85;102951.10;108507;1260;58327;-58
2024/01/29 07:18:17;;;;;;;16.10;6.70;;;;;;;0.98;57.86;102943.52;108601;1260;74336;-59
2024/01/29 07:20:45;;;;;;;16.90;7.60;;;;;;;1.03;57.85;102941.44;108541;1261;61935;-58
2024/01/29 07:23:13;;;;;;;13.30;6.90;;;;;;;1.08;57.71;102950.09;104786;1264;63708;-62
2024/01/29 07:25:40;;;;;;;16.00;8.20;;;;;;;1.11;57.49;102952.70;104741;1265;59853;-62
2024/01/29 07:28:08;;;;;;;16.30;6.60;;;;;;;1.09;57.28;102954.93;104965;1266;59832;-61
2024/01/29 07:30:36;;;;;;;15.60;6.40;;;;;;;1.02;57.20;102957.17;104551;1267;74126;-62
2024/01/29 07:33:04;;;;;;;14.50;8.30;;;;;;;0.96;57.27;102962.00;104644;1263;70535;-61
2024/01/29 07:35:32;;;;;;;16.80;7.20;;;;;;;0.92;57.18;102961.48;104777;1264;72897;-62
2024/01/29 07:38:00;;;;;;;15.70;6.90;;;;;;;0.85;57.26;102959.38;104529;1264;59666;-60
2024/01/29 07:40:27;;;;;;;15.80;6.80;;;;;;;0.82;57.22;102960.94;105130;1261;59965;-62
2024/01/29 07:42:55;;;;;;;14.50;6.00;;;;;;;0.81;57.30;102961.29;104623;1260;73526;-56
2024/01/29 07:45:24;;;;;;;15.20;5.40;;;;;;;0.87;57.16;102962.17;104756;1267;69201;-56
2024/01/29 07:47:52;;;;;;;11.50;5.10;;;;;;;0.94;57.07;102972.36;105488;1260;75586;-57
2024/01/29 07:50:20;;;;;;;11.90;4.60;;;;;;;1.02;56.84;102965.29;106415;1263;59771;-56
2024/01/29 07:52:48;;;;;;;12.40;4.50;;;;;;;1.09;56.73;102964.10;105801;1257;60076;-56
2024/01/29 07:55:16;;;;;;;9.70;4.30;;;;;;;1.14;56.73;102960.81;105635;1260;73050;-57
2024/01/29 07:57:44;;;;;;;13.50;5.00;;;;;;;1.20;56.90;102967.55;105038;1257;69253;-58
2024/01/29 08:00:13;;;;;;;17.80;6.20;;;;;;;1.24;56.84;102970.67;104855;1260;73773;-57
2024/01/29 08:02:41;;;;;;;13.40;5.00;;;;;;;1.22;56.79;102973.96;106810;1260;59774;-56
2024/01/29 08:05:09;;;;;;;11.10;4.90;;;;;;;1.23;56.75;102977.77;104827;1261;61245;-55
2024/01/29 08:07:37;;;;;;;15.90;6.00;;;;;;;1.26;56.66;102977.60;105082;1262;73435;-55
2024/01/29 08:10:06;;;;;;;16.10;6.60;;;;;;;1.32;56.56;102971.03;104984;1257;70179;-56
2024/01/29 08:12:34;;;;;;;13.40;6.00;;;;;;;1.33;56.39;102973.80;105987;1259;73006;-57
2024/01/29 08:15:01;;;;;;;20.90;7.00;;;;;;;1.34;56.30;102975.34;104849;1263;60673;-57
2024/01/29 08:17:29;;;;;;;15.80;6.20;;;;;;;1.37;56.16;102976.39;104849;1258;59573;-57
2024/01/29 08:19:56;;;;;;;10.70;3.40;;;;;;;1.39;55.76;102973.27;108653;1259;73092;-58
2024/01/29 08:22:24;;;;;;;9.50;4.60;;;;;;;1.36;55.48;102970.86;105372;1258;72703;-55
2024/01/29 08:24:52;;;;;;;11.40;4.80;;;;;;;1.36;55.25;102972.77;104835;1263;71945;-57
2024/01/29 08:27:19;;;;;;;12.70;5.70;;;;;;;1.39;55.10;102973.62;104813;1262;59657;-57
2024/01/29 08:29:47;;;;;;;11.70;4.70;;;;;;;1.40;54.97;102973.98;104914;1257;62284;-58
2024/01/29 08:32:15;;;;;;;9.40;5.50;;;;;;;1.42;54.74;102973.62;107718;1254;71881;-58
2024/01/29 08:34:43;;;;;;;17.20;6.20;;;;;;;1.41;54.77;102970.15;105206;1254;70678;-58
2024/01/29 08:37:11;;;;;;;15.00;6.20;;;;;;;1.46;54.73;102974.64;104894;1257;72668;-58
2024/01/29 08:39:38;;;;;;;12.70;4.90;;;;;;;1.55;54.60;102973.10;105411;1254;60855;-58
2024/01/29 08:42:57;;;;;;;11.40;4.70;;;;;;;1.66;54.52;102977.59;105064;1259;59740;-56
2024/01/29 08:45:25;;;;;;;12.40;5.50;;;;;;;1.76;54.29;102976.70;106426;1254;64185;-57
2024/01/29 08:47:53;;;;;;;11.20;6.10;;;;;;;1.77;54.26;102976.19;104981;1254;70370;-57
2024/01/29 08:50:21;;;;;;;12.10;4.90;;;;;;;1.81;54.33;102975.31;106665;1254;74954;-57
2024/01/29 08:52:49;;;;;;;15.00;5.90;;;;;;;1.88;54.32;102971.67;105160;1254;59544;-58
2024/01/29 08:55:16;;;;;;;11.60;4.60;;;;;;;1.95;54.24;102974.08;105083;1259;60019;-57
2024/01/29 08:57:44;;;;;;;11.10;5.40;;;;;;;1.97;54.03;102975.95;104943;1259;75181;-57
2024/01/29 09:00:13;;;;;;;10.00;5.80;;;;;;;2.01;53.80;102983.05;104802;1260;69592;-58
2024/01/29 09:02:41;;;;;;;12.40;5.20;;;;;;;2.01;53.67;102981.84;107709;1254;72685;-54
2024/01/29 09:05:08;;;;;;;9.20;4.50;;;;;;;1.99;53.58;102983.22;105024;1256;59665;-58
2024/01/29 09:07:36;;;;;;;11.80;5.00;;;;;;;2.03;53.43;102984.78;105400;1254;62332;-57
2024/01/29 09:10:05;;;;;;;12.10;5.30;;;;;;;2.03;53.38;102983.56;104926;1254;71976;-58
2024/01/29 09:12:32;;;;;;;10.70;5.10;;;;;;;2.08;53.44;102983.91;109091;1254;72609;-53
2024/01/29 09:15:04;;;;;;;10.10;3.60;;;;;;;2.14;53.43;102987.70;109093;1254;72990;-52
2024/01/29 09:17:31;;;;;;;9.50;5.10;;;;;;;2.20;53.34;102988.02;109079;1254;57987;-56
2024/01/29 09:19:59;;;;;;;11.90;4.50;;;;;;;2.27;53.12;102989.05;109115;1254;62250;-56
2024/01/29 09:22:26;;;;;;;10.20;5.10;;;;;;;2.32;52.94;102995.95;109153;1254;72569;-63
2024/01/29 09:24:54;;;;;;;10.20;5.00;;;;;;;2.34;52.79;103005.13;107386;1254;69835;-69
2024/01/29 09:27:21;;;;;;;10.60;3.60;;;;;;;2.34;52.64;103002.52;109110;1254;73100;-65
2024/01/29 09:29:49;;;;;;;9.90;4.00;;;;;;;2.38;52.64;103000.77;109049;1254;60361;-63
2024/01/29 09:32:16;;;;;;;12.20;5.80;;;;;;;2.43;52.40;102995.57;108958;1254;60014;-64
2024/01/29 09:34:44;;;;;;;14.80;5.80;;;;;;;2.47;52.27;102992.60;109045;1254;73037;-66
2024/01/29 09:37:12;;;;;;;11.30;5.40;;;;;;;2.57;51.87;102992.04;109098;1254;69224;-55
2024/01/29 09:39:39;;;;;;;11.40;4.70;;;;;;;2.71;51.66;102991.80;109047;1254;72657;-55
2024/01/29 09:42:07;;;;;;;11.10;5.10;;;;;;;2.82;51.58;102988.45;109115;1256;61990;-56
2024/01/29 09:44:38;;;;;;;11.90;4.80;;;;;;;2.90;51.50;102989.09;108913;1257;58741;-53
2024/01/29 09:47:06;;;;;;;11.40;4.50;;;;;;;2.94;51.20;102984.56;109131;1252;64152;-55
2024/01/29 09:49:34;;;;;;;13.00;5.40;;;;;;;2.99;51.24;102985.39;109131;1253;71768;-54
2024/01/29 09:52:09;;;;;;;10.80;3.90;;;;;;;3.06;50.83;102982.56;107932;1257;71495;-67
2024/01/29 09:54:37;;;;;;;10.20;4.10;;;;;;;3.03;50.43;102985.53;107132;1254;61535;-66
2024/01/29 09:57:05;;;;;;;12.90;5.60;;;;;;;3.01;50.33;102984.52;105249;1260;62040;-64
2024/01/29 09:59:32;;;;;;;11.00;4.20;;;;;;;3.01;50.57;102985.04;105135;1262;72848;-54
2024/01/29 10:02:00;;;;;;;11.70;4.40;;;;;;;3.06;50.73;102979.61;105186;1255;72901;-55
2024/01/29 10:04:29;;;;;;;14.50;5.10;;;;;;;3.11;50.52;102975.77;105638;1257;71201;-53
2024/01/29 10:06:58;;;;;;;9.80;4.40;;;;;;;3.12;50.63;102976.98;105785;1260;60267;-57
2024/01/29 10:09:26;;;;;;;13.30;5.90;;;;;;;3.13;50.55;102976.62;107280;1254;60060;-49
2024/01/29 10:11:54;;;;;;;13.20;4.70;;;;;;;3.21;50.46;102978.30;105829;1254;72063;-55
2024/01/29 10:14:21;;;;;;;10.00;4.30;;;;;;;3.28;50.45;102980.50;105765;1255;69247;-53
2024/01/29 10:16:50;;;;;;;13.60;5.40;;;;;;;3.34;50.33;102975.94;105146;1260;71533;-55
2024/01/29 10:19:18;;;;;;;11.00;5.60;;;;;;;3.42;50.30;102979.70;105149;1260;59740;-55
2024/01/29 10:21:46;;;;;;;10.90;4.10;;;;;;;3.48;49.89;102981.55;104977;1259;59945;-56
2024/01/29 10:24:16;;;;;;;9.40;4.50;;;;;;;3.47;49.41;102984.33;105241;1256;73142;-56
2024/01/29 10:26:44;;;;;;;10.70;4.80;;;;;;;3.50;49.25;102985.87;105198;1259;71040;-53
2024/01/29 10:29:12;;;;;;;12.00;4.90;;;;;;;3.54;49.12;102983.58;105179;1254;73842;-54
2024/01/29 10:31:41;;;;;;;10.60;4.70;;;;;;;3.55;48.75;102986.00;105149;1253;60519;-57
2024/01/29 10:34:09;;;;;;;8.90;4.60;;;;;;;3.53;48.72;102990.52;105410;1254;61162;-55
2024/01/29 10:36:40;;;;;;;9.90;3.90;;;;;;;3.58;48.57;102990.84;105146;1254;71775;-56
2024/01/29 10:39:08;;;;;;;10.20;3.80;;;;;;;3.62;48.40;102989.75;105131;1254;72658;-55
2024/01/29 10:41:36;;;;;;;9.40;3.10;;;;;;;3.66;48.18;102985.04;105108;1254;72456;-56
2024/01/29 10:44:04;;;;;;;12.80;3.60;;;;;;;3.68;47.69;102982.94;105466;1259;59650;-56
2024/01/29 10:46:37;;;;;;;10.90;4.00;;;;;;;3.68;47.54;102988.48;105523;1254;62823;-55
2024/01/29 10:49:05;;;;;;;8.90;3.20;;;;;;;3.67;47.50;102995.79;105023;1254;71840;-55
2024/01/29 10:51:33;;;;;;;11.10;4.10;;;;;;;3.65;46.89;102992.52;105588;1254;69611;-57
2024/01/29 10:54:01;;;;;;;10.10;4.00;;;;;;;3.61;46.76;102991.67;105422;1254;72488;-56
2024/01/29 10:56:30;;;;;;;9.10;2.80;;;;;;;3.57;46.80;102993.45;106354;1254;61481;-57
2024/01/29 10:58:58;;;;;;;6.40;3.60;;;;;;;3.57;46.07;102999.17;106416;1255;61010;-62
2024/01/29 11:01:31;;;;;;;5.20;1.70;;;;;;;3.55;45.42;102999.55;105394;1254;76098;-60
2024/01/29 11:04:00;;;;;;;4.00;1.10;;;;;;;3.59;45.25;102994.83;109096;1254;72133;-58
2024/01/29 11:06:52;;;;;;;6.30;2.60;;;;;;;3.67;44.65;102991.80;105622;1254;72685;-60
2024/01/29 11:09:20;;;;;;;5.60;2.40;;;;;;;3.74;44.39;102992.26;105091;1254;60959;-59
2024/01/29 11:11:48;;;;;;;5.30;2.00;;;;;;;3.80;44.32;102986.81;105034;1254;60941;-61
2024/01/29 11:14:19;;;;;;;9.60;3.30;;;;;;;3.86;44.11;102989.86;105176;1259;77043;-59
2024/01/29 11:16:49;;;;;;;5.50;2.00;;;;;;;3.87;44.15;102990.21;105293;1254;72607;-63
2024/01/29 11:19:17;;;;;;;6.20;2.80;;;;;;;3.89;44.08;102987.93;105218;1261;71540;-60
2024/01/29 11:21:49;;;;;;;6.50;3.30;;;;;;;3.94;44.29;102987.53;105204;1254;60399;-60
2024/01/29 11:24:21;;;;;;;6.50;2.40;;;;;;;4.03;44.27;102992.13;105356;1254;60630;-61
2024/01/29 11:26:49;;;;;;;9.40;2.80;;;;;;;4.10;44.16;102994.66;105224;1259;76066;-62
2024/01/29 11:29:21;;;;;;;9.80;3.40;;;;;;;4.16;44.12;102994.95;105226;1259;69011;-61
2024/01/29 11:31:51;;;;;;;8.00;2.20;;;;;;;4.22;44.03;102992.45;105930;1259;71969;-61
2024/01/29 11:34:27;;;;;;;7.40;3.10;;;;;;;4.23;43.94;102993.82;105290;1256;60555;-55